Time;durP1;ratioP1;P1;durP2;ratioP2;P2;SDS_P1;SDS_P2;PMS_P1;PMS_P2;Temp;Humidity;BMP_temperature;BMP_pressure;BME280_temperature;BME280_humidity;BME280_pressure;Samples;Min_cycle;Max_cycle;Signal;HPM_P1;HPM_P2
2021/06/03 00:01:55;;;;;;;0.30;0.30;;;13.30;99.90;;;;;;5110190;28;20222;-69
2021/06/03 00:04:21;;;;;;;0.20;0.20;;;13.30;99.90;;;;;;5110163;28;20511;-69
2021/06/03 00:06:47;;;;;;;0.57;0.57;;;13.30;99.90;;;;;;5110120;28;20167;-69
2021/06/03 00:09:14;;;;;;;0.80;0.80;;;13.20;99.90;;;;;;5109978;28;20229;-69
2021/06/03 00:11:40;;;;;;;1.23;1.13;;;13.20;99.90;;;;;;5110120;28;20159;-69
2021/06/03 00:14:07;;;;;;;0.40;0.40;;;13.10;99.90;;;;;;5109980;28;20160;-69
2021/06/03 00:16:34;;;;;;;0.15;0.15;;;13.10;99.90;;;;;;5086108;28;20183;-73
2021/06/03 00:19:05;;;;;;;0.30;0.28;;;13.10;99.90;;;;;;5074263;28;20192;-72
2021/06/03 00:21:31;;;;;;;6.68;2.25;;;13.10;99.90;;;;;;5089555;28;20513;-73
2021/06/03 00:23:58;;;;;;;0.55;0.55;;;13.00;99.90;;;;;;5094847;28;20164;-73
2021/06/03 00:26:24;;;;;;;0.60;0.60;;;13.00;99.90;;;;;;5109847;28;20220;-73
2021/06/03 00:28:50;;;;;;;0.47;0.47;;;12.90;99.90;;;;;;5109634;28;20206;-73
2021/06/03 00:31:16;;;;;;;0.75;0.75;;;12.80;99.90;;;;;;5109627;28;20206;-73
2021/06/03 00:33:42;;;;;;;0.88;0.82;;;12.70;99.90;;;;;;5093456;28;20160;-73
2021/06/03 00:36:09;;;;;;;0.55;0.55;;;12.70;99.90;;;;;;5071445;28;20168;-73
2021/06/03 00:38:36;;;;;;;0.50;0.50;;;12.80;99.90;;;;;;5089245;28;20270;-73
2021/06/03 00:41:04;;;;;;;1.42;1.33;;;12.70;99.90;;;;;;5089274;28;20163;-73
2021/06/03 00:43:31;;;;;;;0.20;0.20;;;12.70;99.90;;;;;;5071202;28;20224;-73
2021/06/03 00:45:58;;;;;;;3.33;0.85;;;12.70;99.90;;;;;;5089144;28;20216;-73
2021/06/03 00:48:24;;;;;;;0.77;0.77;;;12.60;99.90;;;;;;5070875;28;20265;-73
2021/06/03 00:50:54;;;;;;;1.20;1.10;;;12.60;99.90;;;;;;5087013;28;20258;-73
2021/06/03 00:53:20;;;;;;;0.52;0.52;;;12.60;99.90;;;;;;5109451;28;20243;-73
2021/06/03 00:55:49;;;;;;;0.35;0.35;;;12.50;99.90;;;;;;5109414;28;20168;-73
2021/06/03 00:58:16;;;;;;;1.60;1.50;;;12.50;99.90;;;;;;5091101;28;20277;-73
2021/06/03 01:00:43;;;;;;;1.40;1.27;;;12.50;99.90;;;;;;5109361;28;20164;-73
2021/06/03 01:03:10;;;;;;;0.75;0.75;;;12.40;99.90;;;;;;5109520;28;20174;-74
2021/06/03 01:05:42;;;;;;;0.88;0.75;;;12.40;99.90;;;;;;5109310;28;20167;-73
2021/06/03 01:08:15;;;;;;;0.68;0.68;;;12.50;99.90;;;;;;5091045;28;20226;-73
2021/06/03 01:10:55;;;;;;;0.50;0.50;;;12.40;99.90;;;;;;5109088;28;20175;-73
2021/06/03 01:13:32;;;;;;;0.55;0.45;;;12.30;99.90;;;;;;5109197;28;20155;-74
2021/06/03 01:16:01;;;;;;;0.25;0.25;;;12.30;99.90;;;;;;5109250;28;20159;-73
2021/06/03 01:18:31;;;;;;;0.77;0.77;;;12.40;99.90;;;;;;5090981;28;20299;-73
2021/06/03 01:20:58;;;;;;;0.65;0.65;;;12.50;99.90;;;;;;5091432;28;20291;-73
2021/06/03 01:23:32;;;;;;;0.90;0.32;;;12.60;99.90;;;;;;5105996;28;20160;-74
2021/06/03 01:25:59;;;;;;;0.22;0.20;;;12.60;99.90;;;;;;5088915;28;20160;-74
2021/06/03 01:28:25;;;;;;;1.27;0.98;;;12.60;99.90;;;;;;5088795;28;20547;-74
2021/06/03 01:30:54;;;;;;;0.13;0.13;;;12.60;99.90;;;;;;5088777;28;20160;-74
2021/06/03 01:33:24;;;;;;;0.93;0.93;;;12.50;99.90;;;;;;5088705;28;20160;-74
2021/06/03 01:35:54;;;;;;;0.30;0.25;;;12.50;99.90;;;;;;5088720;28;20156;-74
2021/06/03 01:38:29;;;;;;;1.60;0.88;;;12.40;99.90;;;;;;5070621;28;20178;-74
2021/06/03 01:40:57;;;;;;;0.50;0.50;;;12.30;99.90;;;;;;5088598;28;20160;-74
2021/06/03 01:43:24;;;;;;;0.10;0.10;;;12.30;99.90;;;;;;5088695;28;20164;-73
2021/06/03 01:45:51;;;;;;;0.85;0.85;;;12.30;99.90;;;;;;5091413;28;20230;-73
2021/06/03 01:48:19;;;;;;;13.88;0.50;;;12.20;99.90;;;;;;5092288;28;20188;-74
2021/06/03 01:50:48;;;;;;;0.43;0.43;;;12.10;99.90;;;;;;5098390;28;20155;-74
2021/06/03 01:53:18;;;;;;;1.33;1.27;;;12.10;99.90;;;;;;5112625;28;20726;-74
2021/06/03 01:55:45;;;;;;;0.47;0.47;;;12.20;99.90;;;;;;5094249;28;20191;-73
2021/06/03 01:58:11;;;;;;;1.15;0.75;;;12.00;99.90;;;;;;5112593;28;20709;-73
2021/06/03 02:00:38;;;;;;;1.42;1.33;;;12.00;99.90;;;;;;5112490;28;20707;-74
2021/06/03 02:03:04;;;;;;;1.02;0.63;;;11.90;99.90;;;;;;5112500;28;20163;-74
2021/06/03 02:05:30;;;;;;;2.13;0.55;;;11.90;99.90;;;;;;5112379;28;20210;-74
2021/06/03 02:07:56;;;;;;;0.47;0.45;;;11.80;99.90;;;;;;5094102;28;20217;-74
2021/06/03 02:10:23;;;;;;;0.50;0.50;;;11.80;99.90;;;;;;5112315;28;20155;-73
2021/06/03 02:13:05;;;;;;;0.30;0.30;;;11.90;99.90;;;;;;5112246;28;20194;-73
2021/06/03 02:15:37;;;;;;;0.30;0.30;;;12.00;99.90;;;;;;5112241;28;20155;-73
2021/06/03 02:18:07;;;;;;;1.15;1.00;;;12.00;99.90;;;;;;5112040;28;20189;-73
2021/06/03 02:20:36;;;;;;;0.35;0.35;;;12.00;99.90;;;;;;5112106;28;20187;-73
2021/06/03 02:23:04;;;;;;;0.28;0.28;;;11.90;99.90;;;;;;5112215;28;20190;-73
2021/06/03 02:25:30;;;;;;;0.43;0.43;;;11.90;99.90;;;;;;5091732;28;20168;-73
2021/06/03 02:27:57;;;;;;;0.43;0.43;;;11.90;99.90;;;;;;5091602;28;20192;-73
2021/06/03 02:30:24;;;;;;;2.47;0.98;;;11.90;99.90;;;;;;5091631;28;20160;-73
2021/06/03 02:32:51;;;;;;;1.63;0.82;;;11.90;99.90;;;;;;5091457;28;20213;-73
2021/06/03 02:35:18;;;;;;;0.90;0.75;;;11.90;99.90;;;;;;5091545;28;20160;-73
2021/06/03 02:37:46;;;;;;;0.30;0.30;;;11.80;99.90;;;;;;5091483;28;20171;-74
2021/06/03 02:40:16;;;;;;;0.73;0.50;;;11.80;99.90;;;;;;5091578;28;20629;-74
2021/06/03 02:42:45;;;;;;;1.63;0.90;;;11.70;99.90;;;;;;5091203;28;20199;-73
2021/06/03 02:45:14;;;;;;;0.57;0.57;;;11.60;99.90;;;;;;5091106;28;20215;-73
2021/06/03 02:47:41;;;;;;;4.95;1.55;;;11.60;99.90;;;;;;5091360;28;20185;-73
2021/06/03 02:50:09;;;;;;;0.70;0.70;;;11.60;99.90;;;;;;5091183;28;20171;-73
2021/06/03 02:52:36;;;;;;;0.47;0.47;;;11.60;99.90;;;;;;5090927;28;20191;-74
2021/06/03 02:55:05;;;;;;;3.53;1.23;;;11.60;99.90;;;;;;5091226;28;20152;-74
2021/06/03 02:57:32;;;;;;;3.15;0.75;;;11.60;99.90;;;;;;5090625;28;20224;-74
2021/06/03 02:59:58;;;;;;;0.38;0.30;;;11.60;99.90;;;;;;5091156;28;20163;-74
2021/06/03 03:02:24;;;;;;;0.38;0.38;;;11.50;99.90;;;;;;5072917;28;20199;-74
2021/06/03 03:04:50;;;;;;;2.17;1.40;;;11.50;99.90;;;;;;5090939;28;20220;-74
2021/06/03 03:07:16;;;;;;;0.25;0.25;;;11.60;99.90;;;;;;5090957;28;20149;-74
2021/06/03 03:09:41;;;;;;;0.55;0.55;;;11.60;99.90;;;;;;5090838;28;20204;-74
2021/06/03 03:12:08;;;;;;;1.27;1.00;;;11.60;99.90;;;;;;5090645;28;20641;-74
2021/06/03 03:14:37;;;;;;;0.22;0.22;;;11.70;99.90;;;;;;5090662;28;20160;-74
2021/06/03 03:17:03;;;;;;;0.73;0.73;;;11.70;99.90;;;;;;5094015;28;20179;-74
2021/06/03 03:19:29;;;;;;;0.85;0.85;;;11.70;99.90;;;;;;5110865;28;20206;-74
2021/06/03 03:21:55;;;;;;;0.40;0.40;;;11.80;99.90;;;;;;5092622;28;20202;-73
2021/06/03 03:24:21;;;;;;;0.75;0.65;;;11.80;99.90;;;;;;5110935;28;20687;-74
2021/06/03 03:26:47;;;;;;;1.85;0.75;;;11.80;99.90;;;;;;5110861;28;20170;-74
2021/06/03 03:29:13;;;;;;;0.15;0.15;;;11.90;99.90;;;;;;5110703;28;20250;-74
2021/06/03 03:31:39;;;;;;;0.60;0.60;;;11.90;99.90;;;;;;5110575;28;20191;-74
2021/06/03 03:34:05;;;;;;;1.00;0.75;;;12.00;99.90;;;;;;5092541;28;20168;-74
2021/06/03 03:36:32;;;;;;;0.45;0.45;;;12.00;99.90;;;;;;5110685;28;20167;-74
2021/06/03 03:38:58;;;;;;;1.00;1.00;;;12.10;99.90;;;;;;5110582;28;20209;-74
2021/06/03 03:41:24;;;;;;;0.32;0.32;;;12.20;99.90;;;;;;5110498;28;20221;-73
2021/06/03 03:43:53;;;;;;;0.52;0.52;;;12.30;99.90;;;;;;5110501;28;20215;-74
2021/06/03 03:46:19;;;;;;;0.25;0.25;;;12.40;99.90;;;;;;5092055;28;20230;-74
2021/06/03 03:48:45;;;;;;;0.75;0.75;;;12.50;99.90;;;;;;5110227;28;20191;-74
2021/06/03 03:51:13;;;;;;;1.23;1.13;;;12.70;99.90;;;;;;5092101;28;20195;-74
2021/06/03 03:53:43;;;;;;;0.73;0.73;;;13.20;99.90;;;;;;5110225;28;20189;-74
2021/06/03 03:56:11;;;;;;;1.20;1.20;;;13.80;99.90;;;;;;5110278;28;20156;-74
2021/06/03 03:58:40;;;;;;;0.77;0.77;;;14.30;99.90;;;;;;5091936;28;20179;-74
2021/06/03 04:01:07;;;;;;;0.38;0.38;;;14.70;99.90;;;;;;5110174;28;20226;-74
2021/06/03 04:03:33;;;;;;;0.25;0.20;;;14.90;99.90;;;;;;5110102;28;20163;-74
2021/06/03 04:05:59;;;;;;;1.42;0.57;;;14.80;99.90;;;;;;5110211;28;20216;-74
2021/06/03 04:08:25;;;;;;;3.10;1.58;;;14.50;99.90;;;;;;5109073;28;20651;-74
2021/06/03 04:10:51;;;;;;;0.60;0.40;;;14.60;99.90;;;;;;5110093;28;20182;-74
2021/06/03 04:13:17;;;;;;;0.52;0.52;;;14.40;99.90;;;;;;5109895;28;20155;-74
2021/06/03 04:15:43;;;;;;;1.38;1.20;;;14.10;99.90;;;;;;5091574;28;20167;-74
2021/06/03 04:18:08;;;;;;;0.82;0.82;;;13.80;99.90;;;;;;5109655;28;20259;-73
2021/06/03 04:20:34;;;;;;;0.38;0.38;;;13.70;99.90;;;;;;5109911;28;20167;-74
2021/06/03 04:23:01;;;;;;;1.70;0.85;;;13.70;99.90;;;;;;5109729;28;20619;-73
2021/06/03 04:25:28;;;;;;;1.33;1.33;;;13.90;99.90;;;;;;5109686;28;20171;-74
2021/06/03 04:27:55;;;;;;;0.30;0.30;;;14.20;99.90;;;;;;5109633;28;20222;-74
2021/06/03 04:30:24;;;;;;;0.45;0.45;;;14.50;99.90;;;;;;5109765;28;20215;-73
2021/06/03 04:32:51;;;;;;;0.68;0.68;;;15.00;99.90;;;;;;5109532;28;20211;-74
2021/06/03 04:35:19;;;;;;;0.50;0.50;;;15.50;99.90;;;;;;5109591;28;20221;-73
2021/06/03 04:37:46;;;;;;;2.10;0.82;;;15.80;99.90;;;;;;5091177;28;20177;-73
2021/06/03 04:40:14;;;;;;;9.05;1.58;;;16.30;99.90;;;;;;5109517;28;20163;-74
2021/06/03 04:42:40;;;;;;;1.13;0.70;;;16.60;99.90;;;;;;5091247;28;20296;-73
2021/06/03 04:45:08;;;;;;;2.42;0.90;;;16.80;99.90;;;;;;5109269;28;20214;-73
2021/06/03 04:47:34;;;;;;;1.13;1.02;;;16.50;99.90;;;;;;5091346;28;20519;-73
2021/06/03 04:49:59;;;;;;;0.55;0.55;;;16.50;99.90;;;;;;5109462;28;20186;-73
2021/06/03 04:52:28;;;;;;;1.08;0.57;;;16.80;99.90;;;;;;5109348;28;20183;-73
2021/06/03 04:55:06;;;;;;;1.58;1.48;;;17.10;99.90;;;;;;5091050;28;20238;-73
2021/06/03 04:57:33;;;;;;;2.83;1.08;;;17.10;99.90;;;;;;5109337;28;20158;-73
2021/06/03 05:00:00;;;;;;;0.43;0.43;;;16.90;99.90;;;;;;5109429;28;20167;-73
2021/06/03 05:02:26;;;;;;;0.85;0.85;;;16.60;99.90;;;;;;5109294;28;20246;-73
2021/06/03 05:04:53;;;;;;;0.90;0.90;;;16.50;99.90;;;;;;5109367;28;20151;-73
2021/06/03 05:07:20;;;;;;;0.55;0.50;;;16.70;99.90;;;;;;5091248;28;20225;-73
2021/06/03 05:09:47;;;;;;;1.75;0.75;;;17.00;99.90;;;;;;5109409;28;20179;-73
2021/06/03 05:12:13;;;;;;;1.45;1.35;;;17.10;99.90;;;;;;5109160;28;20183;-73
2021/06/03 05:14:39;;;;;;;1.30;0.93;;;17.30;99.90;;;;;;5109130;28;20163;-73
2021/06/03 05:17:05;;;;;;;0.85;0.68;;;17.40;99.90;;;;;;5109230;28;20159;-73
2021/06/03 05:19:32;;;;;;;0.68;0.68;;;17.40;99.90;;;;;;5110206;28;20156;-73
2021/06/03 05:21:58;;;;;;;4.53;1.50;;;17.80;99.90;;;;;;5113253;28;20186;-74
2021/06/03 05:24:24;;;;;;;0.73;0.73;;;18.40;99.90;;;;;;5113333;28;20166;-74
2021/06/03 05:26:50;;;;;;;0.80;0.77;;;18.90;99.90;;;;;;5113273;28;20160;-74
2021/06/03 05:29:16;;;;;;;19.17;1.27;;;19.20;99.90;;;;;;5094825;28;20199;-74
2021/06/03 05:31:45;;;;;;;1.35;0.77;;;19.10;99.90;;;;;;5094758;28;20696;-73
2021/06/03 05:34:12;;;;;;;0.40;0.40;;;19.30;99.90;;;;;;5094927;28;20677;-73
2021/06/03 05:36:38;;;;;;;0.98;0.52;;;19.40;99.90;;;;;;5094857;28;20163;-73
2021/06/03 05:39:06;;;;;;;0.73;0.73;;;19.70;99.90;;;;;;5112735;28;20167;-73
2021/06/03 05:41:33;;;;;;;1.65;1.23;;;20.50;99.90;;;;;;5112751;28;20195;-73
2021/06/03 05:43:59;;;;;;;0.60;0.60;;;21.00;99.90;;;;;;5112645;28;20620;-72
2021/06/03 05:46:26;;;;;;;0.40;0.40;;;21.50;99.90;;;;;;5111908;28;20178;-73
2021/06/03 05:48:52;;;;;;;1.10;0.90;;;21.00;99.90;;;;;;5112760;28;20190;-72
2021/06/03 05:51:19;;;;;;;0.43;0.43;;;21.10;99.90;;;;;;5112647;28;20151;-73
2021/06/03 05:53:45;;;;;;;1.73;1.52;;;20.60;99.90;;;;;;5112665;28;20155;-73
2021/06/03 05:56:11;;;;;;;0.32;0.32;;;20.50;99.90;;;;;;5094375;28;20162;-72
2021/06/03 05:58:37;;;;;;;10.48;1.90;;;21.30;99.90;;;;;;5106572;28;20206;-72
2021/06/03 06:01:04;;;;;;;1.38;1.13;;;21.80;99.90;;;;;;5106155;28;20164;-72
2021/06/03 06:03:38;;;;;;;0.70;0.70;;;21.70;99.90;;;;;;5095616;28;20193;-72
2021/06/03 06:06:24;;;;;;;0.85;0.85;;;21.90;99.90;;;;;;5094821;28;20151;-72
2021/06/03 06:08:55;;;;;;;1.25;0.68;;;22.80;99.90;;;;;;5112403;28;20267;-72
2021/06/03 06:11:22;;;;;;;0.40;0.40;;;23.80;99.90;;;;;;5112244;28;20151;-72
2021/06/03 06:13:50;;;;;;;0.30;0.30;;;23.50;99.90;;;;;;5112073;28;20154;-72
2021/06/03 06:16:16;;;;;;;1.23;0.90;;;23.90;99.90;;;;;;5095706;28;20194;-72
2021/06/03 06:18:43;;;;;;;1.35;1.25;;;24.30;99.90;;;;;;5073789;28;20225;-72
2021/06/03 06:21:11;;;;;;;0.77;0.63;;;24.90;99.90;;;;;;5074030;28;20175;-72
2021/06/03 06:23:39;;;;;;;0.55;0.55;;;26.30;99.90;;;;;;5091681;28;20167;-72
2021/06/03 06:26:06;;;;;;;5.93;2.35;;;26.40;99.90;;;;;;5091860;28;20159;-72
2021/06/03 06:28:33;;;;;;;0.93;0.70;;;27.10;99.90;;;;;;5091616;28;20195;-72
2021/06/03 06:30:59;;;;;;;1.13;0.73;;;27.60;99.90;;;;;;5080918;28;20209;-72
2021/06/03 06:33:25;;;;;;;0.82;0.82;;;26.40;99.90;;;;;;5110892;28;20210;-72
2021/06/03 06:35:52;;;;;;;1.27;1.13;;;27.30;99.90;;;;;;5111602;28;20189;-72
2021/06/03 06:38:21;;;;;;;0.82;0.82;;;27.40;99.90;;;;;;5111752;28;20186;-72
2021/06/03 06:40:48;;;;;;;1.20;0.95;;;27.00;99.90;;;;;;5111777;28;20151;-72
2021/06/03 06:43:14;;;;;;;0.17;0.17;;;27.00;99.90;;;;;;5111056;28;20521;-72
2021/06/03 06:45:40;;;;;;;0.80;0.80;;;27.60;99.90;;;;;;5111464;28;20214;-72
2021/06/03 06:48:09;;;;;;;2.22;0.95;;;28.00;99.90;;;;;;5111169;28;20217;-72
2021/06/03 06:50:36;;;;;;;3.88;1.23;;;29.30;99.90;;;;;;5111554;28;20147;-72
2021/06/03 06:53:04;;;;;;;1.23;0.50;;;30.10;99.90;;;;;;5111092;28;20177;-72
2021/06/03 06:55:32;;;;;;;0.40;0.40;;;30.10;99.90;;;;;;5111193;28;20179;-72
2021/06/03 06:57:59;;;;;;;0.70;0.70;;;29.80;99.90;;;;;;5111246;28;20198;-73
2021/06/03 07:00:29;;;;;;;0.63;0.45;;;29.90;99.90;;;;;;5090525;28;20186;-72
2021/06/03 07:02:55;;;;;;;0.50;0.50;;;28.90;99.90;;;;;;5091084;28;20152;-72
2021/06/03 07:05:22;;;;;;;1.02;0.93;;;28.30;99.90;;;;;;5090377;28;20187;-72
2021/06/03 07:07:49;;;;;;;0.43;0.43;;;28.90;99.90;;;;;;5110105;28;20177;-72
2021/06/03 07:10:16;;;;;;;0.25;0.25;;;29.00;99.90;;;;;;5104767;28;20178;-72
2021/06/03 07:12:42;;;;;;;0.80;0.80;;;28.10;99.60;;;;;;5130955;28;20162;-72
2021/06/03 07:15:11;;;;;;;0.65;0.60;;;27.60;99.90;;;;;;5130926;28;20198;-72
2021/06/03 07:17:37;;;;;;;0.93;0.80;;;26.90;99.90;;;;;;5113144;28;20237;-72
2021/06/03 07:20:12;;;;;;;0.70;0.68;;;27.00;99.90;;;;;;5131021;28;20169;-72
2021/06/03 07:22:43;;;;;;;0.73;0.57;;;28.40;99.90;;;;;;5130850;28;20169;-72
2021/06/03 07:25:11;;;;;;;0.82;0.60;;;29.40;99.40;;;;;;5130733;28;20190;-72
2021/06/03 07:27:40;;;;;;;0.77;0.77;;;30.00;98.30;;;;;;5130704;28;20173;-72
2021/06/03 07:30:09;;;;;;;1.33;0.80;;;30.00;98.00;;;;;;5130822;28;20165;-72
2021/06/03 07:32:35;;;;;;;1.67;0.77;;;30.00;97.60;;;;;;5126782;28;20159;-72
2021/06/03 07:35:02;;;;;;;0.68;0.43;;;31.00;98.50;;;;;;5124421;28;20186;-71
2021/06/03 07:37:31;;;;;;;2.42;0.70;;;31.30;96.70;;;;;;5130678;28;20165;-72
2021/06/03 07:39:57;;;;;;;0.77;0.75;;;29.20;98.10;;;;;;5130652;28;20189;-71
2021/06/03 07:42:23;;;;;;;0.95;0.90;;;28.60;99.50;;;;;;5130415;28;20162;-72
2021/06/03 07:44:48;;;;;;;0.47;0.35;;;29.50;98.40;;;;;;5108748;28;20230;-71
2021/06/03 07:47:16;;;;;;;0.35;0.35;;;29.60;97.50;;;;;;5109179;28;20194;-71
2021/06/03 07:49:42;;;;;;;2.90;0.50;;;30.20;96.90;;;;;;5110287;28;20290;-71
2021/06/03 07:52:08;;;;;;;1.67;0.95;;;30.40;97.50;;;;;;5110100;28;20159;-72
2021/06/03 07:54:36;;;;;;;0.57;0.50;;;30.50;97.70;;;;;;5109751;28;20197;-72
2021/06/03 07:57:02;;;;;;;2.63;1.30;;;30.90;97.60;;;;;;5105043;28;20235;-72
2021/06/03 07:59:29;;;;;;;0.70;0.70;;;31.20;96.30;;;;;;5106401;28;20179;-72
2021/06/03 08:01:56;;;;;;;1.15;0.88;;;31.10;96.90;;;;;;5108115;28;20226;-72
2021/06/03 08:04:21;;;;;;;1.30;0.93;;;31.30;96.80;;;;;;5108700;28;20641;-72
2021/06/03 08:06:48;;;;;;;0.75;0.75;;;30.10;98.20;;;;;;5102171;28;20163;-72
2021/06/03 08:09:16;;;;;;;1.40;0.68;;;30.10;97.20;;;;;;5109036;28;20193;-72
2021/06/03 08:11:44;;;;;;;0.90;0.45;;;29.80;98.20;;;;;;5109330;28;20159;-72
2021/06/03 08:14:13;;;;;;;1.15;1.08;;;30.30;97.20;;;;;;5109242;28;20182;-72
2021/06/03 08:16:39;;;;;;;0.98;0.63;;;30.10;98.10;;;;;;5109392;28;20170;-72
2021/06/03 08:19:06;;;;;;;0.50;0.45;;;30.00;96.90;;;;;;5109372;28;20159;-71
2021/06/03 08:21:36;;;;;;;0.70;0.70;;;29.70;97.10;;;;;;5107419;28;20167;-71
2021/06/03 08:24:03;;;;;;;0.70;0.70;;;30.20;96.40;;;;;;5109370;28;20197;-71
2021/06/03 08:26:30;;;;;;;0.65;0.65;;;29.60;96.60;;;;;;5109255;28;20619;-71
2021/06/03 08:28:57;;;;;;;1.30;1.15;;;29.70;97.10;;;;;;5109301;28;20618;-71
2021/06/03 08:31:26;;;;;;;0.50;0.50;;;29.30;98.40;;;;;;5109356;28;20159;-71
2021/06/03 08:33:53;;;;;;;0.73;0.73;;;29.70;98.00;;;;;;5109132;28;20202;-71
2021/06/03 08:36:21;;;;;;;0.45;0.45;;;29.70;98.20;;;;;;5109172;28;20191;-71
2021/06/03 08:38:47;;;;;;;0.55;0.55;;;30.10;97.60;;;;;;5109226;28;20241;-71
2021/06/03 08:41:14;;;;;;;1.13;0.73;;;31.30;96.60;;;;;;5109185;28;20178;-71
2021/06/03 08:43:40;;;;;;;0.57;0.57;;;31.60;96.00;;;;;;5109007;28;20206;-71
2021/06/03 08:46:07;;;;;;;1.55;1.05;;;32.40;96.30;;;;;;5127117;28;20210;-71
2021/06/03 08:48:32;;;;;;;6.45;0.82;;;32.70;94.60;;;;;;5129253;28;20609;-72
2021/06/03 08:51:03;;;;;;;0.85;0.75;;;32.70;95.00;;;;;;5129359;28;20186;-71
2021/06/03 08:53:30;;;;;;;0.50;0.47;;;32.20;94.30;;;;;;5110810;28;20177;-71
2021/06/03 08:58:52;;;;;;;1.52;0.60;;;31.10;97.50;;;;;;5126530;28;20211;-71
2021/06/03 09:01:19;;;;;;;1.10;0.70;;;30.90;95.10;;;;;;5110796;28;20177;-71
2021/06/03 09:03:47;;;;;;;0.52;0.52;;;29.20;97.50;;;;;;5129200;28;20166;-71
2021/06/03 09:06:14;;;;;;;0.68;0.65;;;29.60;97.90;;;;;;5123216;28;20178;-71
2021/06/03 09:08:41;;;;;;;1.00;0.90;;;30.20;96.70;;;;;;5128606;28;20186;-71
2021/06/03 09:11:10;;;;;;;0.82;0.82;;;29.20;96.80;;;;;;5129211;28;20258;-71
2021/06/03 09:13:41;;;;;;;1.08;0.98;;;29.10;98.10;;;;;;5129182;28;20158;-71
2021/06/03 09:16:09;;;;;;;0.90;0.43;;;30.00;97.30;;;;;;5128149;28;20240;-71
2021/06/03 09:18:51;;;;;;;0.73;0.60;;;29.20;97.70;;;;;;5110728;28;20188;-71
2021/06/03 09:21:30;;;;;;;0.63;0.63;;;29.00;99.10;;;;;;5110814;28;20203;-71
2021/06/03 09:24:10;;;;;;;6.57;0.75;;;28.90;99.80;;;;;;5129064;28;20201;-71
2021/06/03 09:26:45;;;;;;;2.03;1.40;;;29.40;98.10;;;;;;5128743;28;20170;-71
2021/06/03 09:29:25;;;;;;;0.90;0.85;;;29.50;97.20;;;;;;5128928;28;20189;-71
2021/06/03 09:31:53;;;;;;;3.75;1.05;;;29.60;97.50;;;;;;5129034;28;20173;-71
2021/06/03 09:34:21;;;;;;;1.23;0.95;;;29.80;97.30;;;;;;5128988;28;20190;-71
2021/06/03 09:36:49;;;;;;;0.63;0.63;;;29.50;98.10;;;;;;5110565;28;20187;-71
2021/06/03 09:39:18;;;;;;;0.75;0.35;;;29.90;98.00;;;;;;5129044;28;20177;-71
2021/06/03 09:41:49;;;;;;;0.68;0.65;;;29.60;97.80;;;;;;5129015;28;20174;-72
2021/06/03 09:44:24;;;;;;;1.48;1.38;;;29.20;98.10;;;;;;5128352;28;20200;-71
2021/06/03 09:47:15;;;;;;;0.40;0.40;;;29.40;98.50;;;;;;5129164;28;20205;-72
2021/06/03 09:49:46;;;;;;;1.30;0.88;;;30.40;99.40;;;;;;5110052;28;20218;-71
2021/06/03 09:52:17;;;;;;;0.82;0.82;;;30.90;97.50;;;;;;5129355;28;20154;-72
2021/06/03 09:54:51;;;;;;;0.93;0.93;;;31.80;97.80;;;;;;5111075;28;20215;-72
2021/06/03 09:57:18;;;;;;;1.95;0.93;;;31.20;96.50;;;;;;5129155;28;20210;-72
2021/06/03 09:59:57;;;;;;;0.75;0.75;;;31.50;97.20;;;;;;5114446;28;20171;-72
2021/06/03 10:02:23;;;;;;;1.70;0.80;;;32.00;96.70;;;;;;5107984;28;20851;-71
2021/06/03 10:04:51;;;;;;;0.70;0.60;;;32.40;97.70;;;;;;5090526;28;20266;-71
2021/06/03 10:07:28;;;;;;;1.20;1.20;;;32.80;96.70;;;;;;5110479;28;20202;-72
2021/06/03 10:10:09;;;;;;;0.40;0.40;;;31.60;95.90;;;;;;5111950;28;20182;-72
2021/06/03 10:12:38;;;;;;;0.47;0.47;;;31.90;97.10;;;;;;5112303;28;20676;-72
2021/06/03 10:15:07;;;;;;;1.08;0.95;;;31.40;97.50;;;;;;5112169;28;20151;-72
2021/06/03 10:17:40;;;;;;;1.50;0.85;;;31.70;99.50;;;;;;5112153;28;20187;-72
2021/06/03 10:20:16;;;;;;;1.67;1.58;;;32.70;96.60;;;;;;5112199;28;20151;-72
2021/06/03 10:22:47;;;;;;;1.50;0.80;;;30.90;97.80;;;;;;5112089;28;20720;-71
2021/06/03 10:25:18;;;;;;;1.15;1.05;;;30.10;98.30;;;;;;5112147;28;20154;-72
2021/06/03 10:27:51;;;;;;;1.40;1.30;;;30.40;97.90;;;;;;5093539;28;20221;-71
2021/06/03 10:30:23;;;;;;;0.77;0.52;;;31.10;97.80;;;;;;5111834;28;20182;-72
2021/06/03 10:32:51;;;;;;;0.57;0.57;;;32.20;96.90;;;;;;5112000;28;20636;-72
2021/06/03 10:35:19;;;;;;;1.00;1.00;;;32.70;95.60;;;;;;5111843;28;20155;-72
2021/06/03 10:37:47;;;;;;;3.33;1.00;;;32.50;95.80;;;;;;5111651;28;20679;-72
2021/06/03 10:40:17;;;;;;;1.50;1.08;;;31.40;95.60;;;;;;5111754;28;20151;-70
2021/06/03 10:42:44;;;;;;;1.17;1.08;;;30.00;97.70;;;;;;5111711;28;20162;-70
2021/06/03 10:45:13;;;;;;;0.32;0.32;;;28.90;98.70;;;;;;5111418;28;20352;-71
2021/06/03 10:47:39;;;;;;;0.60;0.60;;;29.00;99.60;;;;;;5111444;28;20187;-72
2021/06/03 10:50:09;;;;;;;1.55;0.63;;;29.50;98.90;;;;;;5111569;28;20151;-73
2021/06/03 10:52:35;;;;;;;0.95;0.60;;;30.20;97.90;;;;;;5111507;28;20155;-72
2021/06/03 10:55:01;;;;;;;0.90;0.85;;;30.40;98.70;;;;;;5110278;28;20155;-73
2021/06/03 10:57:48;;;;;;;1.30;1.20;;;30.30;98.00;;;;;;5111282;28;20196;-73
2021/06/03 11:00:29;;;;;;;1.75;1.23;;;29.90;98.00;;;;;;5110998;28;20171;-73
2021/06/03 11:03:01;;;;;;;2.67;0.63;;;29.00;98.70;;;;;;5110576;28;20166;-73
2021/06/03 11:05:32;;;;;;;0.82;0.82;;;29.00;99.80;;;;;;5110286;28;20163;-73
2021/06/03 11:08:27;;;;;;;0.63;0.60;;;30.20;97.70;;;;;;5101571;28;20211;-73
2021/06/03 11:11:14;;;;;;;0.65;0.65;;;30.30;98.20;;;;;;5101482;28;20166;-73
2021/06/03 11:13:46;;;;;;;0.73;0.57;;;30.50;96.60;;;;;;5093028;28;20190;-74
2021/06/03 11:16:19;;;;;;;4.05;1.00;;;30.90;97.00;;;;;;5091481;28;20198;-73
2021/06/03 11:18:45;;;;;;;0.52;0.52;;;30.80;97.40;;;;;;5095356;28;20166;-73
2021/06/03 11:24:04;;;;;;;1.23;1.15;;;30.30;97.10;;;;;;5110808;28;20167;-70
2021/06/03 11:26:48;;;;;;;0.68;0.68;;;29.90;97.50;;;;;;5092508;28;20230;-69
2021/06/03 11:29:21;;;;;;;2.90;1.08;;;30.00;97.10;;;;;;5110068;28;20241;-69
2021/06/03 11:32:05;;;;;;;1.45;0.77;;;29.90;96.40;;;;;;5110790;28;20200;-70
2021/06/03 11:34:40;;;;;;;0.40;0.40;;;29.60;97.00;;;;;;5090441;28;20234;-70
2021/06/03 11:37:43;;;;;;;2.65;1.48;;;29.70;98.90;;;;;;5097928;28;20193;-69
2021/06/03 11:40:17;;;;;;;1.63;1.08;;;29.40;97.80;;;;;;5110431;28;20190;-70
2021/06/03 11:42:49;;;;;;;1.55;0.95;;;29.30;99.50;;;;;;5110430;28;20166;-70
2021/06/03 11:45:30;;;;;;;0.50;0.50;;;29.10;97.90;;;;;;5110127;28;20215;-69
2021/06/03 11:48:01;;;;;;;0.88;0.80;;;29.00;98.80;;;;;;5110484;28;20261;-71
2021/06/03 11:50:27;;;;;;;4.32;1.35;;;29.50;97.90;;;;;;5092190;28;20731;-70
2021/06/03 11:52:53;;;;;;;0.88;0.75;;;28.40;98.50;;;;;;5110423;28;20167;-69
2021/06/03 11:55:55;;;;;;;1.13;1.00;;;27.90;99.60;;;;;;5109975;28;20210;-69
2021/06/03 11:58:28;;;;;;;1.50;0.65;;;28.10;99.20;;;;;;5011436;28;20175;-70
2021/06/03 12:00:58;;;;;;;0.40;0.40;;;28.70;99.20;;;;;;5027934;28;20185;-70
2021/06/03 12:03:34;;;;;;;1.05;0.77;;;29.30;99.80;;;;;;5027905;28;20181;-69
2021/06/03 12:06:13;;;;;;;0.25;0.25;;;29.40;99.90;;;;;;5011341;28;20220;-69
2021/06/03 12:08:59;;;;;;;1.50;0.95;;;29.20;98.70;;;;;;5027696;28;20205;-69
2021/06/03 12:11:44;;;;;;;1.55;0.98;;;28.20;99.60;;;;;;5027536;28;20770;-71
2021/06/03 12:14:19;;;;;;;0.45;0.40;;;27.40;99.70;;;;;;5032256;28;20171;-71
2021/06/03 12:16:48;;;;;;;0.80;0.80;;;26.80;99.90;;;;;;5047429;28;20188;-71
2021/06/03 12:19:18;;;;;;;0.55;0.52;;;26.20;99.90;;;;;;5030669;28;20189;-71
2021/06/03 12:21:48;;;;;;;1.30;0.85;;;25.70;99.90;;;;;;5030910;28;20164;-71
2021/06/03 12:24:14;;;;;;;0.57;0.57;;;25.50;99.90;;;;;;5047634;28;20216;-70
2021/06/03 12:26:42;;;;;;;5.57;0.95;;;25.30;99.90;;;;;;5047108;28;20596;-70
2021/06/03 12:29:24;;;;;;;0.68;0.68;;;25.20;99.90;;;;;;5046609;28;20196;-70
2021/06/03 12:31:50;;;;;;;3.55;1.02;;;25.00;99.90;;;;;;5056440;28;20178;-71
2021/06/03 12:34:22;;;;;;;0.57;0.57;;;25.30;99.90;;;;;;5111860;28;20181;-71
2021/06/03 12:36:48;;;;;;;0.95;0.63;;;25.70;99.90;;;;;;5122444;28;20244;-71
2021/06/03 12:39:15;;;;;;;2.72;0.88;;;26.10;99.90;;;;;;5109600;28;20177;-71
2021/06/03 12:41:43;;;;;;;1.85;0.90;;;25.80;99.90;;;;;;5109473;28;20167;-71
2021/06/03 12:44:18;;;;;;;1.33;0.80;;;25.40;99.90;;;;;;5090836;28;20228;-71
2021/06/03 12:46:51;;;;;;;1.23;0.60;;;25.40;99.90;;;;;;5091474;28;20208;-71
2021/06/03 12:49:27;;;;;;;1.02;0.60;;;25.00;99.90;;;;;;5109569;28;20190;-71
2021/06/03 12:52:00;;;;;;;0.43;0.43;;;25.00;99.90;;;;;;5109576;28;20576;-71
2021/06/03 12:54:30;;;;;;;1.15;0.68;;;25.30;99.90;;;;;;5109746;28;20167;-71
2021/06/03 12:56:58;;;;;;;0.28;0.28;;;25.30;99.90;;;;;;5109284;28;20208;-71
2021/06/03 12:59:28;;;;;;;0.32;0.32;;;25.20;99.90;;;;;;5109315;28;20151;-72
2021/06/03 13:02:00;;;;;;;0.70;0.70;;;25.20;99.90;;;;;;5109549;28;20253;-71